Oklahoma City, OK (73195)

8:58 AM CST on January 30, 2015 (GMT -0600)
Penshurst 3rd | Change Station
CLOSE
Current Station
Personal Weather Station
Location: Oklahoma CIty, OK
Elevation: 1200 ft
Nearby Weather Stations

Elev 1200 ft 35.54 °N, 97.56 °W | Updated 24 seconds ago

Mostly Cloudy
Mostly Cloudy
36.8 °F
Feels Like 37 °F
N
0.0
Wind Variable Wind from NNW
Gusts 0.0 mph

Today
High -- | Low -- °F
--% Chance of Precip.
Yesterday
High -- | Low -- °F
Precip. -- in
7:31 AM 5:55 PM
Waxing Gibbous, 83% visible
Pressure 30.55 in
Visibility 9.0 miles
Clouds Clear
Windchill 37 °F
Dew Point 29 °F
Humidity 74%
Rainfall 0.00 in
Snow Depth Not available.
UV 1 out of 12
Pollen 2.80 out of 12
Air Quality Not available.
Flu Activity Not available.
METAR KPWA 301453Z 04006KT 9SM CLR 03/M02 A3053 RMK AO2 SLP345 T00281022 50008

More Conditions Fewer Conditions

Pressure 30.55 in
Visibility 9.0 miles
Clouds Clear
Windchill 37 °F
Dew Point 29 °F
Humidity 74%
Rainfall 0.00 in
Snow Depth Not available.
UV 1 out of 12
Pollen 2.80 out of 12
Air Quality Not available.
Flu Activity Not available.
METAR KPWA 301453Z 04006KT 9SM CLR 03/M02 A3053 RMK AO2 SLP345 T00281022 50008

More Conditions Fewer Conditions

10-Day Weather Forecast

Almanac

Astronomy

Jan. 30, 2015 Rise Set
Actual Time
Civil Twilight
Nautical Twilight
Astronomical Twilight
Moon
Length of Visible Light
Length of Day
Tomorrow will be .
, % of the Moon is Illuminated

Today's Extremes

State Highs State Lows

Community

WunderPhotos

Upload Photos

1,791,768 photos uploaded!

WunderBlogs® & News

Nearby

Air Quality

  Air Quality AQ Index Pollutant
Not available.

Snow Depth

Station Depth Elevation

Earthquake Activity

City Distance Mag. Time & Date
Minimum magnitude displayed is 2.5.

Coastal Water Temperatures

Place Temperature

Nearby Weather Stations